createdAt,value
2023-01-26T00:01:15.201Z,64.03
2023-01-26T00:03:42.499Z,69.47
2023-01-26T00:06:12.274Z,68.97
2023-01-26T00:08:40.013Z,78.20
2023-01-26T00:11:09.054Z,65.65
2023-01-26T00:13:36.639Z,73.67
2023-01-26T00:16:04.496Z,70.07
2023-01-26T00:18:32.009Z,77.67
2023-01-26T00:21:01.711Z,81.90
2023-01-26T00:23:30.636Z,68.70
2023-01-26T00:25:57.431Z,62.43
2023-01-26T00:28:25.235Z,78.20
2023-01-26T00:30:52.011Z,68.15
2023-01-26T00:33:18.851Z,75.13
2023-01-26T00:35:54.370Z,76.50
2023-01-26T00:38:21.519Z,73.72
2023-01-26T00:40:48.273Z,75.97
2023-01-26T00:43:15.179Z,77.90
2023-01-26T00:45:41.937Z,74.67
2023-01-26T00:48:08.754Z,79.67
2023-01-26T00:50:35.488Z,87.43
2023-01-26T00:53:02.187Z,79.53
2023-01-26T00:55:32.441Z,79.07
2023-01-26T00:58:04.211Z,70.20
2023-01-26T01:00:32.836Z,78.65
2023-01-26T01:03:00.006Z,73.93
2023-01-26T01:05:29.025Z,71.93
2023-01-26T01:07:55.946Z,76.33
2023-01-26T01:10:23.792Z,74.93
2023-01-26T01:12:50.861Z,75.27
2023-01-26T01:15:17.807Z,80.43
2023-01-26T01:17:44.621Z,82.87
2023-01-26T01:20:12.053Z,81.93
2023-01-26T01:22:39.172Z,75.20
2023-01-26T01:25:06.363Z,80.47
2023-01-26T01:27:33.128Z,75.27
2023-01-26T01:29:59.776Z,78.87
2023-01-26T01:32:26.590Z,75.90
2023-01-26T01:34:53.368Z,69.60
2023-01-26T01:37:20.089Z,79.40
2023-01-26T01:39:48.727Z,88.90
2023-01-26T01:42:15.551Z,81.73
2023-01-26T01:44:43.595Z,82.57
2023-01-26T01:47:23.304Z,87.33
2023-01-26T01:49:52.521Z,75.83
2023-01-26T01:52:27.236Z,75.07
2023-01-26T01:55:02.202Z,82.67
2023-01-26T01:57:44.950Z,75.37
2023-01-26T02:00:18.527Z,87.13
2023-01-26T02:03:08.727Z,69.77
2023-01-26T02:05:49.844Z,82.33
2023-01-26T02:08:19.431Z,71.87
2023-01-26T02:10:49.218Z,65.83
2023-01-26T02:13:18.397Z,80.23
2023-01-26T02:15:45.123Z,73.23
2023-01-26T02:18:12.458Z,73.63
2023-01-26T02:20:53.091Z,75.73
2023-01-26T02:23:31.508Z,71.87
2023-01-26T02:26:05.412Z,77.57
2023-01-26T02:28:32.975Z,78.15
2023-01-26T02:30:59.832Z,68.27
2023-01-26T02:33:32.300Z,75.37
2023-01-26T02:35:59.802Z,74.17
2023-01-26T02:38:31.076Z,78.40
2023-01-26T02:41:06.710Z,73.33
2023-01-26T02:43:33.633Z,73.77
2023-01-26T02:46:00.510Z,70.77
2023-01-26T02:48:45.827Z,81.17
2023-01-26T02:51:12.869Z,76.97
2023-01-26T02:53:39.789Z,71.33
2023-01-26T02:56:06.895Z,72.60
2023-01-26T02:58:33.660Z,75.73
2023-01-26T03:01:00.580Z,82.90
2023-01-26T03:03:45.287Z,80.27
2023-01-26T03:06:13.078Z,71.38
2023-01-26T03:08:39.895Z,63.97
2023-01-26T03:11:07.886Z,77.60
2023-01-26T03:13:35.250Z,65.63
2023-01-26T03:16:06.954Z,71.03
2023-01-26T03:18:53.843Z,72.25
2023-01-26T03:21:39.336Z,64.53
2023-01-26T03:24:25.364Z,78.75
2023-01-26T03:27:10.747Z,62.13
2023-01-26T03:29:37.445Z,63.63
2023-01-26T03:32:04.374Z,67.33
2023-01-26T03:34:31.408Z,59.73
2023-01-26T03:36:58.237Z,59.80
2023-01-26T03:39:43.853Z,66.27
2023-01-26T03:42:29.366Z,57.37
2023-01-26T03:45:14.653Z,58.37
2023-01-26T03:47:59.785Z,59.80
2023-01-26T03:50:45.229Z,61.35
2023-01-26T03:53:35.826Z,59.75
2023-01-26T03:56:21.115Z,65.07
2023-01-26T03:58:51.581Z,63.83
2023-01-26T04:01:21.707Z,64.67
2023-01-26T04:04:08.246Z,52.33
2023-01-26T04:06:54.729Z,60.90
2023-01-26T04:09:22.176Z,65.53
2023-01-26T04:11:49.051Z,58.40
2023-01-26T04:14:50.004Z,55.03
2023-01-26T04:17:36.789Z,67.70
2023-01-26T04:20:24.133Z,63.13
2023-01-26T04:22:50.893Z,60.37
2023-01-26T04:25:19.966Z,61.20
2023-01-26T04:27:46.894Z,60.20
2023-01-26T04:30:15.686Z,59.63
2023-01-26T04:32:42.547Z,56.97
2023-01-26T04:35:10.307Z,49.60
2023-01-26T04:37:37.055Z,55.83
2023-01-26T04:40:04.463Z,51.27
2023-01-26T04:42:31.287Z,64.67
2023-01-26T04:44:58.084Z,52.23
2023-01-26T04:47:24.850Z,48.00
2023-01-26T04:49:51.674Z,51.23
2023-01-26T04:52:18.450Z,51.50
2023-01-26T04:54:45.198Z,49.67
2023-01-26T04:57:12.051Z,50.73
2023-01-26T04:59:38.762Z,50.80
2023-01-26T05:02:05.609Z,52.77
2023-01-26T05:04:32.611Z,50.03
2023-01-26T05:06:59.419Z,46.20
2023-01-26T05:09:26.209Z,48.80
2023-01-26T05:11:52.975Z,52.73
2023-01-26T05:14:19.734Z,46.93
2023-01-26T05:16:46.500Z,48.87
2023-01-26T05:19:13.218Z,51.77
2023-01-26T05:21:39.880Z,41.53
2023-01-26T05:24:08.436Z,48.87
2023-01-26T05:26:35.293Z,49.07
2023-01-26T05:29:02.018Z,47.30
2023-01-26T05:31:28.829Z,45.93
2023-01-26T05:33:55.606Z,43.50
2023-01-26T05:36:22.446Z,45.40
2023-01-26T05:38:49.262Z,43.03
2023-01-26T05:41:15.961Z,39.77
2023-01-26T05:43:42.668Z,43.97
2023-01-26T05:46:09.540Z,50.47
2023-01-26T05:48:36.330Z,43.80
2023-01-26T05:51:04.015Z,43.83
2023-01-26T05:53:30.886Z,43.53
2023-01-26T05:55:57.632Z,45.40
2023-01-26T05:58:24.393Z,48.93
2023-01-26T06:00:51.176Z,49.40
2023-01-26T06:03:17.881Z,49.80
2023-01-26T06:05:44.612Z,42.67
2023-01-26T06:08:11.318Z,51.63
2023-01-26T06:10:38.018Z,50.33
2023-01-26T06:13:04.769Z,51.30
2023-01-26T06:15:31.444Z,51.10
2023-01-26T06:18:01.117Z,47.13
2023-01-26T06:20:27.899Z,46.03
2023-01-26T06:22:54.639Z,53.70
2023-01-26T06:25:21.358Z,56.13
2023-01-26T06:27:48.163Z,54.67
2023-01-26T06:30:15.871Z,52.73
2023-01-26T06:32:42.608Z,51.80
2023-01-26T06:35:09.477Z,51.30
2023-01-26T06:37:36.339Z,54.87
2023-01-26T06:40:03.216Z,57.93
2023-01-26T06:42:29.982Z,48.60
2023-01-26T06:44:58.771Z,48.33
2023-01-26T06:47:25.801Z,49.23
2023-01-26T06:49:52.762Z,53.75
2023-01-26T06:52:32.009Z,57.33
2023-01-26T06:55:00.392Z,56.90
2023-01-26T06:57:27.322Z,48.27
2023-01-26T06:59:54.235Z,60.07
2023-01-26T07:02:22.159Z,54.40
2023-01-26T07:04:50.033Z,56.70
2023-01-26T07:07:17.034Z,52.10
2023-01-26T07:09:43.793Z,54.27
2023-01-26T07:12:10.723Z,53.23
2023-01-26T07:14:37.467Z,54.63
2023-01-26T07:17:04.314Z,68.23
2023-01-26T07:19:33.212Z,60.23
2023-01-26T07:22:00.738Z,51.93
2023-01-26T07:24:27.870Z,55.77
2023-01-26T07:26:55.402Z,51.42
2023-01-26T07:29:22.428Z,56.40
2023-01-26T07:31:49.379Z,45.17
2023-01-26T07:34:16.221Z,48.57
2023-01-26T07:36:42.958Z,48.57
2023-01-26T07:39:09.941Z,46.15
2023-01-26T07:41:36.682Z,54.07
2023-01-26T07:44:04.836Z,44.87
2023-01-26T07:46:31.726Z,47.83
2023-01-26T07:48:58.580Z,63.73
2023-01-26T07:51:25.357Z,52.63
2023-01-26T07:53:52.073Z,50.10
2023-01-26T07:56:21.797Z,46.37
2023-01-26T07:58:55.299Z,35.17
2023-01-26T08:01:22.228Z,42.78
2023-01-26T08:03:51.416Z,37.13
2023-01-26T08:06:18.616Z,42.67
2023-01-26T08:12:26.971Z,45.73
2023-01-26T08:14:53.696Z,46.23
2023-01-26T08:17:20.392Z,50.20
2023-01-26T08:19:47.126Z,50.07
2023-01-26T08:22:14.290Z,43.90
2023-01-26T08:24:40.969Z,44.07
2023-01-26T08:27:07.639Z,46.70
2023-01-26T08:29:34.335Z,43.77
2023-01-26T08:32:01.058Z,45.47
2023-01-26T08:34:27.847Z,48.43
2023-01-26T08:36:54.555Z,46.83
2023-01-26T08:39:21.248Z,47.60
2023-01-26T08:41:48.278Z,43.78
2023-01-26T08:44:14.995Z,49.13
2023-01-26T08:46:44.205Z,48.60
2023-01-26T08:49:11.041Z,46.90
2023-01-26T08:51:37.762Z,45.70
2023-01-26T08:54:08.233Z,47.67
2023-01-26T08:56:35.496Z,45.20
2023-01-26T08:59:02.260Z,46.20
2023-01-26T09:01:29.157Z,41.43
2023-01-26T09:03:56.336Z,42.60
2023-01-26T09:06:23.063Z,51.83
2023-01-26T09:08:49.810Z,47.67
2023-01-26T09:11:16.466Z,54.77
2023-01-26T09:13:43.424Z,48.93
2023-01-26T09:16:20.020Z,43.10
2023-01-26T09:18:53.565Z,43.50
2023-01-26T09:21:20.574Z,43.27
2023-01-26T09:23:47.418Z,39.77
2023-01-26T09:26:14.298Z,42.83
2023-01-26T09:28:41.058Z,48.70
2023-01-26T09:31:10.792Z,47.78
2023-01-26T09:33:38.062Z,51.73
2023-01-26T09:36:10.426Z,47.13
2023-01-26T09:38:37.495Z,49.10
2023-01-26T09:41:25.674Z,49.97
2023-01-26T09:43:56.679Z,50.53
2023-01-26T09:47:05.197Z,48.10
2023-01-26T09:49:43.844Z,46.23
2023-01-26T09:52:33.632Z,53.83
2023-01-26T09:55:06.009Z,54.90
2023-01-26T09:57:48.959Z,51.60
2023-01-26T10:00:48.494Z,58.10
2023-01-26T10:03:44.069Z,54.90
2023-01-26T10:06:30.244Z,47.40
2023-01-26T10:09:01.316Z,55.20
2023-01-26T10:11:38.151Z,57.60
2023-01-26T10:14:15.798Z,56.20
2023-01-26T10:16:46.413Z,52.73
2023-01-26T10:19:35.239Z,57.80
2023-01-26T10:22:11.140Z,60.60
2023-01-26T10:24:38.648Z,57.43
2023-01-26T10:27:12.017Z,58.70
2023-01-26T10:29:38.883Z,57.77
2023-01-26T10:32:05.707Z,52.03
2023-01-26T10:34:33.125Z,58.23
2023-01-26T10:37:28.059Z,55.37
2023-01-26T10:40:07.588Z,66.93
2023-01-26T10:42:36.301Z,60.03
2023-01-26T10:45:23.978Z,57.63
2023-01-26T10:48:25.187Z,62.27
2023-01-26T10:50:52.846Z,66.40
2023-01-26T10:53:29.853Z,67.97
2023-01-26T10:55:59.723Z,63.77
2023-01-26T10:58:46.983Z,63.50
2023-01-26T11:01:22.761Z,57.78
2023-01-26T11:04:13.562Z,60.97
2023-01-26T11:06:40.765Z,60.27
2023-01-26T11:09:28.461Z,63.45
2023-01-26T11:12:06.062Z,66.63
2023-01-26T11:14:37.485Z,55.87
2023-01-26T11:17:22.870Z,56.90
2023-01-26T11:20:09.535Z,67.87
2023-01-26T11:23:00.450Z,58.92
2023-01-26T11:25:37.784Z,57.70
2023-01-26T11:28:34.804Z,61.65
2023-01-26T11:31:23.213Z,77.18
2023-01-26T11:34:24.588Z,63.25
2023-01-26T11:37:33.566Z,60.47
2023-01-26T11:40:23.746Z,63.37
2023-01-26T11:43:18.499Z,64.03
2023-01-26T11:45:58.737Z,61.80
2023-01-26T11:48:55.079Z,51.33
2023-01-26T11:52:00.532Z,58.10
2023-01-26T11:54:55.106Z,56.25
2023-01-26T11:57:43.894Z,54.30
2023-01-26T12:00:30.865Z,54.88
2023-01-26T12:03:11.199Z,50.53
2023-01-26T12:05:44.448Z,60.13
2023-01-26T12:08:57.197Z,45.92
2023-01-26T12:11:30.249Z,57.33
2023-01-26T12:14:08.262Z,53.40
2023-01-26T12:16:52.126Z,61.60
2023-01-26T12:19:37.113Z,73.77
2023-01-26T12:22:22.311Z,77.07
2023-01-26T12:25:18.490Z,62.20
2023-01-26T12:27:58.832Z,63.80
2023-01-26T12:30:55.549Z,69.63
2023-01-26T12:33:22.515Z,59.17
2023-01-26T12:35:57.920Z,64.00
2023-01-26T12:38:43.147Z,73.10
2023-01-26T12:41:32.928Z,62.47
2023-01-26T12:44:19.045Z,53.77
2023-01-26T12:46:53.071Z,64.13
2023-01-26T12:49:34.547Z,52.20
2023-01-26T12:52:08.044Z,58.03
2023-01-26T12:54:50.562Z,60.80
2023-01-26T12:57:24.772Z,58.83
2023-01-26T12:59:52.128Z,58.17
2023-01-26T13:02:30.108Z,51.17
2023-01-26T13:04:59.350Z,54.10
2023-01-26T13:07:33.670Z,46.50
2023-01-26T13:10:16.210Z,48.33
2023-01-26T13:12:59.379Z,40.23
2023-01-26T13:15:29.177Z,41.63
2023-01-26T13:18:03.638Z,36.20
2023-01-26T13:20:45.432Z,40.25
2023-01-26T13:23:47.889Z,32.00
2023-01-26T13:26:19.152Z,37.37
2023-01-26T13:28:47.131Z,30.50
2023-01-26T13:31:28.255Z,31.57
2023-01-26T13:33:57.075Z,32.63
2023-01-26T13:36:24.751Z,28.40
2023-01-26T13:39:01.368Z,31.70
2023-01-26T13:41:28.022Z,31.17
2023-01-26T13:44:23.838Z,28.87
2023-01-26T13:47:13.447Z,37.03
2023-01-26T13:49:42.372Z,35.60
2023-01-26T13:52:22.654Z,33.20
2023-01-26T13:54:50.719Z,32.05
2023-01-26T13:57:25.776Z,26.37
2023-01-26T13:59:59.089Z,27.10
2023-01-26T14:02:32.406Z,21.43
2023-01-26T14:05:00.722Z,29.47
2023-01-26T14:07:34.537Z,27.40
2023-01-26T14:10:02.456Z,25.73
2023-01-26T14:12:43.129Z,24.00
2023-01-26T14:15:39.069Z,24.03
2023-01-26T14:18:05.961Z,30.40
2023-01-26T14:20:39.536Z,19.70
2023-01-26T14:23:18.744Z,25.20
2023-01-26T14:25:56.564Z,25.30
2023-01-26T14:28:28.039Z,25.43
2023-01-26T14:31:22.345Z,22.20
2023-01-26T14:33:53.268Z,17.50
2023-01-26T14:36:21.059Z,24.83
2023-01-26T14:38:53.137Z,18.67
2023-01-26T14:41:35.165Z,17.37
2023-01-26T14:44:04.022Z,20.40
2023-01-26T14:46:51.300Z,18.90
2023-01-26T14:49:30.275Z,18.30
2023-01-26T14:51:58.801Z,22.13
2023-01-26T14:54:29.845Z,18.13
2023-01-26T14:56:58.408Z,16.37
2023-01-26T14:59:40.868Z,14.90
2023-01-26T15:02:24.302Z,15.60
2023-01-26T15:05:01.426Z,15.47
2023-01-26T15:07:34.495Z,12.37
2023-01-26T15:10:02.172Z,16.43
2023-01-26T15:12:34.320Z,10.57
2023-01-26T15:15:02.423Z,18.03
2023-01-26T15:17:38.600Z,10.63
2023-01-26T15:20:25.584Z,8.00
2023-01-26T15:22:53.504Z,9.90
2023-01-26T15:25:26.019Z,10.77
2023-01-26T15:27:59.026Z,10.13
2023-01-26T15:30:48.875Z,13.50
2023-01-26T15:33:49.825Z,9.83
2023-01-26T15:36:47.206Z,16.60
2023-01-26T15:39:16.411Z,14.00
2023-01-26T15:41:45.020Z,13.57
2023-01-26T15:44:20.279Z,14.77
2023-01-26T15:46:47.399Z,10.47
2023-01-26T15:49:14.749Z,10.43
2023-01-26T15:51:41.779Z,17.37
2023-01-26T15:54:11.204Z,13.80
2023-01-26T15:56:37.976Z,18.13
2023-01-26T15:59:04.753Z,17.33
2023-01-26T16:01:31.565Z,18.90
2023-01-26T16:03:58.346Z,18.63
2023-01-26T16:06:27.492Z,21.10
2023-01-26T16:08:55.814Z,21.47
2023-01-26T16:11:28.718Z,27.95
2023-01-26T16:14:03.227Z,21.10
2023-01-26T16:16:31.150Z,30.80
2023-01-26T16:18:57.980Z,24.40
2023-01-26T16:21:35.062Z,26.87
2023-01-26T16:24:02.943Z,36.90
2023-01-26T16:26:39.198Z,29.33
2023-01-26T16:29:06.035Z,36.58
2023-01-26T16:31:36.761Z,32.17
2023-01-26T16:34:04.337Z,34.37
2023-01-26T16:36:31.263Z,32.00
2023-01-26T16:38:58.248Z,37.37
2023-01-26T16:41:30.970Z,48.13
2023-01-26T16:44:00.260Z,38.87
2023-01-26T16:46:28.522Z,40.75
2023-01-26T16:48:56.243Z,45.90
2023-01-26T16:51:24.787Z,50.28
2023-01-26T16:53:51.961Z,51.43
2023-01-26T16:56:19.806Z,57.73
2023-01-26T16:58:46.745Z,65.13
2023-01-26T17:01:19.334Z,54.00
2023-01-26T17:03:47.135Z,50.27
2023-01-26T17:06:15.095Z,69.53
2023-01-26T17:08:42.198Z,68.82
2023-01-26T17:11:15.732Z,52.33
2023-01-26T17:13:42.685Z,64.73
2023-01-26T17:16:14.184Z,62.90
2023-01-26T17:18:41.458Z,70.10
2023-01-26T17:21:08.304Z,68.23
2023-01-26T17:23:37.415Z,72.27
2023-01-26T17:26:04.450Z,63.03
2023-01-26T17:28:31.181Z,70.57
2023-01-26T17:31:01.014Z,69.13
2023-01-26T17:33:29.487Z,88.93
2023-01-26T17:36:04.106Z,78.80
2023-01-26T17:38:31.177Z,69.37
2023-01-26T17:40:59.058Z,93.47
2023-01-26T17:43:25.858Z,96.67
2023-01-26T17:45:52.860Z,91.83
2023-01-26T17:48:19.784Z,86.93
2023-01-26T17:50:49.868Z,96.53
2023-01-26T17:53:16.771Z,104.30
2023-01-26T17:55:44.090Z,95.22
2023-01-26T17:58:10.972Z,89.93
2023-01-26T18:00:38.245Z,104.17
2023-01-26T18:03:05.609Z,95.35
2023-01-26T18:05:33.119Z,102.13
2023-01-26T18:07:59.936Z,98.20
2023-01-26T18:10:30.369Z,83.57
2023-01-26T18:12:58.078Z,103.33
2023-01-26T18:15:25.288Z,91.37
2023-01-26T18:17:52.251Z,83.03
2023-01-26T18:20:19.732Z,87.23
2023-01-26T18:22:46.548Z,85.77
2023-01-26T18:25:13.838Z,87.90
2023-01-26T18:27:40.802Z,87.80
2023-01-26T18:30:09.490Z,102.70
2023-01-26T18:32:37.005Z,102.22
2023-01-26T18:35:04.028Z,98.10
2023-01-26T18:37:33.004Z,101.70
2023-01-26T18:40:00.431Z,99.93
2023-01-26T18:42:27.600Z,87.67
2023-01-26T18:45:00.811Z,98.13
2023-01-26T18:47:30.297Z,94.97
2023-01-26T18:49:58.029Z,88.13
2023-01-26T18:52:25.195Z,100.80
2023-01-26T18:54:52.018Z,111.70
2023-01-26T18:57:18.877Z,95.50
2023-01-26T18:59:45.699Z,94.57
2023-01-26T19:02:13.938Z,94.93
2023-01-26T19:04:41.467Z,96.57
2023-01-26T19:07:12.358Z,103.17
2023-01-26T19:09:39.216Z,101.57
2023-01-26T19:12:06.380Z,122.50
2023-01-26T19:14:33.526Z,116.30
2023-01-26T19:17:00.333Z,127.83
2023-01-26T19:19:27.281Z,111.33
2023-01-26T19:21:53.996Z,102.50
2023-01-26T19:24:20.738Z,124.67
2023-01-26T19:26:47.503Z,108.10
2023-01-26T19:29:14.429Z,116.30
2023-01-26T19:31:41.228Z,137.60
2023-01-26T19:34:13.311Z,122.27
2023-01-26T19:36:41.138Z,134.80
2023-01-26T19:39:08.135Z,129.17
2023-01-26T19:41:35.303Z,121.67
2023-01-26T19:44:02.183Z,135.95
2023-01-26T19:46:28.973Z,131.38
2023-01-26T19:48:55.735Z,129.13
2023-01-26T19:51:25.098Z,243.97
2023-01-26T19:53:55.465Z,141.37
2023-01-26T19:56:28.095Z,118.13
2023-01-26T19:58:59.838Z,115.93
2023-01-26T20:01:28.306Z,127.37
2023-01-26T20:03:59.004Z,114.67
2023-01-26T20:06:28.995Z,117.73
2023-01-26T20:08:56.223Z,108.90
2023-01-26T20:11:25.253Z,96.40
2023-01-26T20:13:59.962Z,113.20
2023-01-26T20:16:28.334Z,119.97
2023-01-26T20:18:59.603Z,121.47
2023-01-26T20:21:28.143Z,152.80
2023-01-26T20:23:56.141Z,144.77
2023-01-26T20:26:25.291Z,114.07
2023-01-26T20:28:52.904Z,118.33
2023-01-26T20:31:23.382Z,114.00
2023-01-26T20:33:53.939Z,120.93
2023-01-26T20:36:27.193Z,104.28
2023-01-26T20:38:54.499Z,93.80
2023-01-26T20:41:25.336Z,117.73
2023-01-26T20:43:59.909Z,98.63
2023-01-26T20:46:39.349Z,96.63
2023-01-26T20:49:08.535Z,105.40
2023-01-26T20:51:36.358Z,97.03
2023-01-26T20:54:06.271Z,101.55
2023-01-26T20:56:34.210Z,113.23
2023-01-26T20:59:02.369Z,103.60
2023-01-26T21:01:29.373Z,97.73
2023-01-26T21:03:56.095Z,96.63
2023-01-26T21:06:24.735Z,97.65
2023-01-26T21:08:54.155Z,95.70
2023-01-26T21:11:22.587Z,95.67
2023-01-26T21:13:49.376Z,90.43
2023-01-26T21:16:17.319Z,99.35
2023-01-26T21:18:45.387Z,85.53
2023-01-26T21:21:14.879Z,85.47
2023-01-26T21:23:41.638Z,101.30
2023-01-26T21:26:14.346Z,89.57
2023-01-26T21:28:41.647Z,84.90
2023-01-26T21:31:16.483Z,87.33
2023-01-26T21:33:45.281Z,102.33
2023-01-26T21:36:14.743Z,103.27
2023-01-26T21:38:43.719Z,91.70
2023-01-26T21:41:33.471Z,81.70
2023-01-26T21:44:21.213Z,87.90
2023-01-26T21:46:50.694Z,78.37
2023-01-26T21:49:18.070Z,85.53
2023-01-26T21:52:03.678Z,101.17
2023-01-26T21:54:31.741Z,84.87
2023-01-26T21:56:59.579Z,79.47
2023-01-26T21:59:26.500Z,80.17
2023-01-26T22:01:55.740Z,91.43
2023-01-26T22:04:28.391Z,77.17
2023-01-26T22:06:56.190Z,102.32
2023-01-26T22:09:24.188Z,101.35
2023-01-26T22:11:51.812Z,92.72
2023-01-26T22:14:21.484Z,86.47
2023-01-26T22:16:48.711Z,74.73
2023-01-26T22:19:15.587Z,79.63
2023-01-26T22:21:42.472Z,80.23
2023-01-26T22:24:11.938Z,64.60
2023-01-26T22:26:39.301Z,73.97
2023-01-26T22:29:06.861Z,83.17
2023-01-26T22:31:34.454Z,82.28
2023-01-26T22:34:01.501Z,76.27
2023-01-26T22:36:28.938Z,83.60
2023-01-26T22:38:56.200Z,81.30
2023-01-26T22:41:26.155Z,63.80
2023-01-26T22:43:55.224Z,77.30
2023-01-26T22:46:23.997Z,65.33
2023-01-26T22:48:51.262Z,57.83
2023-01-26T22:51:23.172Z,88.35
2023-01-26T22:53:51.348Z,80.47
2023-01-26T22:56:19.029Z,69.33
2023-01-26T22:58:59.545Z,82.47
2023-01-26T23:01:29.382Z,70.13
2023-01-26T23:03:56.859Z,72.63
2023-01-26T23:06:24.342Z,67.63
2023-01-26T23:08:51.111Z,64.50
2023-01-26T23:11:19.328Z,64.97
2023-01-26T23:13:47.761Z,61.50
2023-01-26T23:16:14.882Z,60.17
2023-01-26T23:18:42.550Z,66.47
2023-01-26T23:21:10.441Z,52.43
2023-01-26T23:23:39.466Z,63.43
2023-01-26T23:26:06.821Z,64.20
2023-01-26T23:28:36.145Z,59.17
2023-01-26T23:31:03.957Z,68.90
2023-01-26T23:33:32.603Z,58.57
2023-01-26T23:35:59.585Z,73.13
2023-01-26T23:38:28.700Z,54.90
2023-01-26T23:40:55.590Z,56.67
2023-01-26T23:43:23.185Z,53.87
2023-01-26T23:45:50.793Z,46.50
2023-01-26T23:48:17.625Z,58.00
2023-01-26T23:50:44.401Z,53.67
2023-01-26T23:53:11.195Z,43.40
2023-01-26T23:55:41.747Z,50.50
2023-01-26T23:58:09.115Z,52.33
